sensor_id;sensor_type;location;lat;lon;timestamp;pressure;altitude;pressure_sealevel;temperature;humidity
28181;BME280;15464;50.988;10.318;2024-03-23T00:53:12;98088.69;;;8.20;100.00
28181;BME280;15464;50.988;10.318;2024-03-23T00:55:37;98088.41;;;8.14;99.94
28181;BME280;15464;50.988;10.318;2024-03-23T00:58:03;98087.13;;;8.08;99.14
28181;BME280;15464;50.988;10.318;2024-03-23T01:00:29;98075.31;;;8.02;98.79
28181;BME280;15464;50.988;10.318;2024-03-23T01:02:55;98087.25;;;7.97;98.43
28181;BME280;15464;50.988;10.318;2024-03-23T01:05:21;98081.25;;;7.85;100.00
28181;BME280;15464;50.988;10.318;2024-03-23T01:07:47;98074.84;;;7.88;100.00
28181;BME280;15464;50.988;10.318;2024-03-23T01:10:12;98080.00;;;7.89;100.00
28181;BME280;15464;50.988;10.318;2024-03-23T01:12:38;98066.50;;;7.83;100.00
28181;BME280;15464;50.988;10.318;2024-03-23T01:15:04;98064.97;;;7.70;100.00
28181;BME280;15464;50.988;10.318;2024-03-23T01:17:30;98062.13;;;7.53;100.00
28181;BME280;15464;50.988;10.318;2024-03-23T01:19:55;98062.78;;;7.45;100.00
28181;BME280;15464;50.988;10.318;2024-03-23T01:22:21;98052.34;;;7.44;100.00
28181;BME280;15464;50.988;10.318;2024-03-23T01:24:47;98064.88;;;7.42;100.00
28181;BME280;15464;50.988;10.318;2024-03-23T01:27:13;98079.47;;;7.25;100.00
28181;BME280;15464;50.988;10.318;2024-03-23T01:29:38;98069.94;;;7.03;100.00
28181;BME280;15464;50.988;10.318;2024-03-23T01:32:05;98066.06;;;7.07;100.00
28181;BME280;15464;50.988;10.318;2024-03-23T01:34:30;98081.22;;;7.05;100.00
28181;BME280;15464;50.988;10.318;2024-03-23T01:36:56;98081.91;;;7.07;100.00
28181;BME280;15464;50.988;10.318;2024-03-23T01:39:22;98071.78;;;7.12;100.00
28181;BME280;15464;50.988;10.318;2024-03-23T01:41:47;98043.41;;;7.25;100.00
28181;BME280;15464;50.988;10.318;2024-03-23T01:44:13;98039.16;;;7.34;100.00
28181;BME280;15464;50.988;10.318;2024-03-23T01:46:39;98042.34;;;7.38;100.00
28181;BME280;15464;50.988;10.318;2024-03-23T01:49:07;98031.25;;;7.44;100.00
28181;BME280;15464;50.988;10.318;2024-03-23T01:51:33;98013.50;;;7.46;100.00
28181;BME280;15464;50.988;10.318;2024-03-23T01:54:01;98002.69;;;7.49;100.00
28181;BME280;15464;50.988;10.318;2024-03-23T01:56:29;98012.66;;;7.45;100.00
28181;BME280;15464;50.988;10.318;2024-03-23T01:58:56;98002.53;;;7.50;100.00
28181;BME280;15464;50.988;10.318;2024-03-23T02:01:22;97988.25;;;7.53;100.00
28181;BME280;15464;50.988;10.318;2024-03-23T02:03:47;97991.28;;;7.48;100.00
28181;BME280;15464;50.988;10.318;2024-03-23T02:06:14;97981.59;;;7.49;100.00
28181;BME280;15464;50.988;10.318;2024-03-23T02:08:40;97981.59;;;7.49;100.00
28181;BME280;15464;50.988;10.318;2024-03-23T02:11:06;97971.56;;;7.52;100.00
28181;BME280;15464;50.988;10.318;2024-03-23T02:13:32;97972.41;;;7.53;100.00
28181;BME280;15464;50.988;10.318;2024-03-23T02:15:58;97972.66;;;7.50;100.00
28181;BME280;15464;50.988;10.318;2024-03-23T02:18:23;97965.47;;;7.52;100.00
28181;BME280;15464;50.988;10.318;2024-03-23T02:20:49;97969.50;;;7.56;99.24
28181;BME280;15464;50.988;10.318;2024-03-23T02:23:16;97977.03;;;7.60;99.00
28181;BME280;15464;50.988;10.318;2024-03-23T02:25:42;97977.56;;;7.64;99.45
28181;BME280;15464;50.988;10.318;2024-03-23T02:28:08;97965.91;;;7.66;98.84
28181;BME280;15464;50.988;10.318;2024-03-23T02:30:33;97958.13;;;7.65;98.52
28181;BME280;15464;50.988;10.318;2024-03-23T02:32:59;97968.56;;;7.66;98.60
28181;BME280;15464;50.988;10.318;2024-03-23T02:35:25;97955.91;;;7.70;98.81
28181;BME280;15464;50.988;10.318;2024-03-23T02:37:51;97952.03;;;7.74;98.60
28181;BME280;15464;50.988;10.318;2024-03-23T02:40:17;97945.50;;;7.78;98.76
28181;BME280;15464;50.988;10.318;2024-03-23T02:42:43;97939.53;;;7.86;99.48
28181;BME280;15464;50.988;10.318;2024-03-23T02:45:09;97950.22;;;7.84;99.41
28181;BME280;15464;50.988;10.318;2024-03-23T02:47:35;97943.28;;;7.83;99.36
28181;BME280;15464;50.988;10.318;2024-03-23T02:50:00;97943.28;;;7.83;99.40
28181;BME280;15464;50.988;10.318;2024-03-23T02:52:26;97942.72;;;7.80;98.71
28181;BME280;15464;50.988;10.318;2024-03-23T02:54:52;97930.63;;;7.77;98.16
28181;BME280;15464;50.988;10.318;2024-03-23T02:57:18;97935.50;;;7.72;98.10
28181;BME280;15464;50.988;10.318;2024-03-23T02:59:43;97930.47;;;7.69;97.14
28181;BME280;15464;50.988;10.318;2024-03-23T03:02:09;97923.56;;;7.68;97.08
28181;BME280;15464;50.988;10.318;2024-03-23T03:04:35;97910.06;;;7.71;97.23
28181;BME280;15464;50.988;10.318;2024-03-23T03:07:01;97907.16;;;7.74;96.88
28181;BME280;15464;50.988;10.318;2024-03-23T03:09:26;97908.81;;;7.75;96.28
28181;BME280;15464;50.988;10.318;2024-03-23T03:11:52;97908.13;;;7.73;96.01
28181;BME280;15464;50.988;10.318;2024-03-23T03:14:18;97911.63;;;7.74;95.89
28181;BME280;15464;50.988;10.318;2024-03-23T03:16:44;97913.25;;;7.75;95.72
28181;BME280;15464;50.988;10.318;2024-03-23T03:19:09;97901.91;;;7.74;96.26
28181;BME280;15464;50.988;10.318;2024-03-23T03:21:36;97891.75;;;7.79;95.91
28181;BME280;15464;50.988;10.318;2024-03-23T03:24:02;97897.03;;;7.79;95.23
28181;BME280;15464;50.988;10.318;2024-03-23T03:26:28;97887.44;;;7.78;95.08
28181;BME280;15464;50.988;10.318;2024-03-23T03:28:54;97888.53;;;7.76;94.90
28181;BME280;15464;50.988;10.318;2024-03-23T03:31:20;97883.56;;;7.73;95.82
28181;BME280;15464;50.988;10.318;2024-03-23T03:33:46;97882.13;;;7.68;96.29
28181;BME280;15464;50.988;10.318;2024-03-23T03:36:12;97863.41;;;7.62;96.94
28181;BME280;15464;50.988;10.318;2024-03-23T03:38:37;97862.72;;;7.60;97.46
28181;BME280;15464;50.988;10.318;2024-03-23T03:41:06;97891.59;;;7.61;97.01
28181;BME280;15464;50.988;10.318;2024-03-23T03:43:32;97908.78;;;7.56;98.79
28181;BME280;15464;50.988;10.318;2024-03-23T03:45:59;97904.53;;;7.55;98.36
28181;BME280;15464;50.988;10.318;2024-03-23T03:48:25;97868.13;;;7.49;98.48
28181;BME280;15464;50.988;10.318;2024-03-23T03:50:52;97830.91;;;7.52;100.00
28181;BME280;15464;50.988;10.318;2024-03-23T03:53:18;97826.03;;;7.57;100.00
28181;BME280;15464;50.988;10.318;2024-03-23T03:55:43;97819.09;;;7.56;100.00
28181;BME280;15464;50.988;10.318;2024-03-23T03:58:09;97804.94;;;7.57;100.00
28181;BME280;15464;50.988;10.318;2024-03-23T04:00:34;97795.34;;;7.56;100.00
28181;BME280;15464;50.988;10.318;2024-03-23T04:03:01;97799.09;;;7.53;100.00
28181;BME280;15464;50.988;10.318;2024-03-23T04:05:27;97796.34;;;7.55;100.00
28181;BME280;15464;50.988;10.318;2024-03-23T04:07:53;97789.38;;;7.54;100.00
28181;BME280;15464;50.988;10.318;2024-03-23T04:10:20;97779.00;;;7.43;100.00
28181;BME280;15464;50.988;10.318;2024-03-23T04:12:47;97775.09;;;7.47;100.00
28181;BME280;15464;50.988;10.318;2024-03-23T04:15:12;97764.53;;;7.47;100.00
28181;BME280;15464;50.988;10.318;2024-03-23T04:17:38;97770.78;;;7.46;100.00
28181;BME280;15464;50.988;10.318;2024-03-23T04:20:05;97754.81;;;7.47;100.00
28181;BME280;15464;50.988;10.318;2024-03-23T04:22:37;97752.59;;;7.43;100.00
28181;BME280;15464;50.988;10.318;2024-03-23T04:25:03;97749.53;;;7.47;100.00
28181;BME280;15464;50.988;10.318;2024-03-23T04:27:33;97736.34;;;7.47;100.00
28181;BME280;15464;50.988;10.318;2024-03-23T04:29:58;97730.25;;;7.47;100.00
28181;BME280;15464;50.988;10.318;2024-03-23T04:32:26;97723.03;;;7.49;100.00
28181;BME280;15464;50.988;10.318;2024-03-23T04:34:52;97727.16;;;7.51;100.00
28181;BME280;15464;50.988;10.318;2024-03-23T04:37:18;97719.38;;;7.50;100.00
28181;BME280;15464;50.988;10.318;2024-03-23T04:39:43;97717.75;;;7.49;100.00
28181;BME280;15464;50.988;10.318;2024-03-23T04:44:37;97700.53;;;7.45;100.00
28181;BME280;15464;50.988;10.318;2024-03-23T04:47:03;97702.50;;;7.43;100.00
28181;BME280;15464;50.988;10.318;2024-03-23T04:49:28;97698.44;;;7.39;100.00
28181;BME280;15464;50.988;10.318;2024-03-23T04:51:54;97703.84;;;7.37;100.00
28181;BME280;15464;50.988;10.318;2024-03-23T04:54:20;97711.38;;;7.32;100.00
28181;BME280;15464;50.988;10.318;2024-03-23T04:56:46;97720.28;;;7.21;100.00
28181;BME280;15464;50.988;10.318;2024-03-23T04:59:11;97719.47;;;7.11;100.00
28181;BME280;15464;50.988;10.318;2024-03-23T05:01:37;97718.22;;;7.06;100.00
28181;BME280;15464;50.988;10.318;2024-03-23T05:04:05;97732.19;;;7.06;100.00
28181;BME280;15464;50.988;10.318;2024-03-23T05:06:31;97735.84;;;7.05;100.00
28181;BME280;15464;50.988;10.318;2024-03-23T05:08:57;97734.41;;;7.01;100.00
28181;BME280;15464;50.988;10.318;2024-03-23T05:11:22;97727.34;;;6.92;100.00
28181;BME280;15464;50.988;10.318;2024-03-23T05:13:48;97715.41;;;6.88;100.00
28181;BME280;15464;50.988;10.318;2024-03-23T05:16:14;97729.13;;;6.82;100.00
28181;BME280;15464;50.988;10.318;2024-03-23T05:18:39;97737.75;;;6.84;100.00
28181;BME280;15464;50.988;10.318;2024-03-23T05:21:05;97730.81;;;6.73;100.00
28181;BME280;15464;50.988;10.318;2024-03-23T05:23:31;97734.81;;;6.68;100.00
28181;BME280;15464;50.988;10.318;2024-03-23T05:25:56;97740.47;;;6.63;100.00
28181;BME280;15464;50.988;10.318;2024-03-23T05:28:22;97746.88;;;6.61;100.00
28181;BME280;15464;50.988;10.318;2024-03-23T05:30:55;97759.09;;;6.62;100.00
28181;BME280;15464;50.988;10.318;2024-03-23T05:33:21;97751.84;;;6.64;100.00
28181;BME280;15464;50.988;10.318;2024-03-23T05:35:57;97748.53;;;6.62;100.00
28181;BME280;15464;50.988;10.318;2024-03-23T05:38:23;97739.66;;;6.63;100.00
28181;BME280;15464;50.988;10.318;2024-03-23T05:40:59;97749.94;;;6.66;100.00
28181;BME280;15464;50.988;10.318;2024-03-23T05:43:26;97732.75;;;6.62;100.00
28181;BME280;15464;50.988;10.318;2024-03-23T05:45:56;97731.91;;;6.61;100.00
28181;BME280;15464;50.988;10.318;2024-03-23T05:48:22;97735.91;;;6.56;100.00
28181;BME280;15464;50.988;10.318;2024-03-23T05:50:51;97745.88;;;6.52;100.00
28181;BME280;15464;50.988;10.318;2024-03-23T05:53:17;97737.41;;;6.48;100.00
28181;BME280;15464;50.988;10.318;2024-03-23T05:55:43;97738.38;;;6.47;100.00
28181;BME280;15464;50.988;10.318;2024-03-23T05:58:10;97746.81;;;6.41;100.00
28181;BME280;15464;50.988;10.318;2024-03-23T06:00:35;97752.94;;;6.42;100.00
28181;BME280;15464;50.988;10.318;2024-03-23T06:03:01;97768.16;;;6.38;100.00
28181;BME280;15464;50.988;10.318;2024-03-23T06:05:27;97759.81;;;6.33;100.00
28181;BME280;15464;50.988;10.318;2024-03-23T06:07:53;97765.38;;;6.30;100.00
28181;BME280;15464;50.988;10.318;2024-03-23T06:10:19;97772.28;;;6.31;100.00
28181;BME280;15464;50.988;10.318;2024-03-23T06:12:47;97778.06;;;6.25;100.00
28181;BME280;15464;50.988;10.318;2024-03-23T06:15:14;97778.34;;;6.22;100.00
28181;BME280;15464;50.988;10.318;2024-03-23T06:17:40;97794.38;;;6.10;100.00
28181;BME280;15464;50.988;10.318;2024-03-23T06:20:06;97809.28;;;5.99;100.00
28181;BME280;15464;50.988;10.318;2024-03-23T06:22:32;97815.50;;;5.98;100.00
28181;BME280;15464;50.988;10.318;2024-03-23T06:24:59;97822.88;;;6.04;100.00
28181;BME280;15464;50.988;10.318;2024-03-23T06:27:25;97845.94;;;5.91;100.00
28181;BME280;15464;50.988;10.318;2024-03-23T06:29:50;97850.06;;;5.73;100.00
28181;BME280;15464;50.988;10.318;2024-03-23T06:32:17;97853.63;;;5.51;100.00
28181;BME280;15464;50.988;10.318;2024-03-23T06:34:43;97850.94;;;5.42;100.00
28181;BME280;15464;50.988;10.318;2024-03-23T06:37:10;97866.63;;;5.32;100.00
28181;BME280;15464;50.988;10.318;2024-03-23T06:39:39;97867.84;;;5.28;100.00
28181;BME280;15464;50.988;10.318;2024-03-23T06:42:05;97877.28;;;5.19;100.00
28181;BME280;15464;50.988;10.318;2024-03-23T06:44:31;97881.47;;;5.22;100.00
28181;BME280;15464;50.988;10.318;2024-03-23T06:46:57;97885.53;;;5.15;100.00
28181;BME280;15464;50.988;10.318;2024-03-23T06:49:23;97905.31;;;4.87;100.00
28181;BME280;15464;50.988;10.318;2024-03-23T06:51:49;97921.69;;;4.79;100.00
28181;BME280;15464;50.988;10.318;2024-03-23T06:54:19;97924.31;;;4.68;100.00
28181;BME280;15464;50.988;10.318;2024-03-23T06:56:45;97931.44;;;4.44;100.00
28181;BME280;15464;50.988;10.318;2024-03-23T06:59:11;97933.84;;;4.47;100.00
28181;BME280;15464;50.988;10.318;2024-03-23T07:01:37;97937.19;;;4.49;100.00
28181;BME280;15464;50.988;10.318;2024-03-23T07:04:03;97952.69;;;4.41;100.00
28181;BME280;15464;50.988;10.318;2024-03-23T07:06:30;97957.69;;;4.44;100.00
28181;BME280;15464;50.988;10.318;2024-03-23T07:08:56;97963.63;;;4.24;100.00
28181;BME280;15464;50.988;10.318;2024-03-23T07:11:22;97967.66;;;4.17;100.00
28181;BME280;15464;50.988;10.318;2024-03-23T07:13:52;97963.47;;;4.14;100.00
28181;BME280;15464;50.988;10.318;2024-03-23T07:16:20;97979.34;;;3.89;100.00
28181;BME280;15464;50.988;10.318;2024-03-23T07:18:46;97981.34;;;3.74;100.00
28181;BME280;15464;50.988;10.318;2024-03-23T07:21:11;97982.50;;;3.70;100.00
28181;BME280;15464;50.988;10.318;2024-03-23T07:23:37;97990.25;;;3.72;100.00
28181;BME280;15464;50.988;10.318;2024-03-23T07:26:04;97999.03;;;3.59;100.00
28181;BME280;15464;50.988;10.318;2024-03-23T07:28:31;97998.19;;;3.59;100.00
28181;BME280;15464;50.988;10.318;2024-03-23T07:31:04;98002.97;;;3.65;100.00
28181;BME280;15464;50.988;10.318;2024-03-23T07:33:31;98008.22;;;3.65;100.00
28181;BME280;15464;50.988;10.318;2024-03-23T07:35:57;98009.13;;;3.77;100.00
28181;BME280;15464;50.988;10.318;2024-03-23T07:38:23;98000.75;;;3.72;100.00
28181;BME280;15464;50.988;10.318;2024-03-23T07:40:49;98018.38;;;3.70;100.00
28181;BME280;15464;50.988;10.318;2024-03-23T07:43:22;98027.56;;;3.75;100.00
28181;BME280;15464;50.988;10.318;2024-03-23T07:45:52;98033.06;;;3.72;100.00
28181;BME280;15464;50.988;10.318;2024-03-23T07:48:18;98035.72;;;3.83;100.00
28181;BME280;15464;50.988;10.318;2024-03-23T07:50:44;98023.75;;;3.92;100.00
28181;BME280;15464;50.988;10.318;2024-03-23T07:53:10;98017.69;;;4.02;100.00
28181;BME280;15464;50.988;10.318;2024-03-23T07:55:35;98033.94;;;4.07;100.00
28181;BME280;15464;50.988;10.318;2024-03-23T07:58:01;98045.94;;;3.75;100.00
28181;BME280;15464;50.988;10.318;2024-03-23T08:00:27;98043.09;;;3.78;100.00
28181;BME280;15464;50.988;10.318;2024-03-23T08:02:52;98037.56;;;3.94;100.00
28181;BME280;15464;50.988;10.318;2024-03-23T08:05:18;98044.09;;;3.88;100.00
28181;BME280;15464;50.988;10.318;2024-03-23T08:07:44;98046.56;;;4.02;100.00
28181;BME280;15464;50.988;10.318;2024-03-23T08:10:09;98048.38;;;4.13;100.00
28181;BME280;15464;50.988;10.318;2024-03-23T08:12:35;98040.31;;;3.92;100.00
28181;BME280;15464;50.988;10.318;2024-03-23T08:15:01;98049.13;;;3.91;100.00
28181;BME280;15464;50.988;10.318;2024-03-23T08:17:27;98057.00;;;3.91;100.00
28181;BME280;15464;50.988;10.318;2024-03-23T08:19:52;98073.34;;;3.95;100.00
28181;BME280;15464;50.988;10.318;2024-03-23T08:22:18;98084.38;;;3.87;100.00
28181;BME280;15464;50.988;10.318;2024-03-23T08:24:44;98095.63;;;3.89;100.00
28181;BME280;15464;50.988;10.318;2024-03-23T08:27:10;98091.25;;;4.01;100.00
28181;BME280;15464;50.988;10.318;2024-03-23T08:29:36;98097.34;;;4.01;100.00
28181;BME280;15464;50.988;10.318;2024-03-23T08:32:01;98098.81;;;4.05;100.00
28181;BME280;15464;50.988;10.318;2024-03-23T08:34:28;98100.75;;;3.91;100.00
28181;BME280;15464;50.988;10.318;2024-03-23T08:36:53;98108.53;;;3.92;100.00
28181;BME280;15464;50.988;10.318;2024-03-23T08:39:19;98115.00;;;3.99;100.00
28181;BME280;15464;50.988;10.318;2024-03-23T08:41:45;98128.22;;;3.98;100.00
28181;BME280;15464;50.988;10.318;2024-03-23T08:44:11;98124.66;;;3.99;100.00
28181;BME280;15464;50.988;10.318;2024-03-23T08:46:37;98130.75;;;3.99;100.00
28181;BME280;15464;50.988;10.318;2024-03-23T08:49:03;98130.66;;;3.88;100.00
28181;BME280;15464;50.988;10.318;2024-03-23T08:51:28;98138.75;;;3.85;100.00
28181;BME280;15464;50.988;10.318;2024-03-23T08:53:54;98124.28;;;3.92;100.00
28181;BME280;15464;50.988;10.318;2024-03-23T08:56:19;98123.38;;;4.04;100.00
28181;BME280;15464;50.988;10.318;2024-03-23T08:58:45;98132.19;;;4.03;100.00
28181;BME280;15464;50.988;10.318;2024-03-23T09:01:12;98132.41;;;4.00;100.00
28181;BME280;15464;50.988;10.318;2024-03-23T09:03:41;98138.88;;;4.07;100.00
28181;BME280;15464;50.988;10.318;2024-03-23T09:06:12;98134.00;;;4.27;100.00
28181;BME280;15464;50.988;10.318;2024-03-23T09:08:39;98139.38;;;4.49;100.00
28181;BME280;15464;50.988;10.318;2024-03-23T09:11:06;98137.91;;;4.45;100.00
28181;BME280;15464;50.988;10.318;2024-03-23T09:13:36;98145.72;;;4.34;100.00
28181;BME280;15464;50.988;10.318;2024-03-23T09:16:04;98134.31;;;4.46;100.00
28181;BME280;15464;50.988;10.318;2024-03-23T09:18:35;98138.84;;;4.68;100.00
28181;BME280;15464;50.988;10.318;2024-03-23T09:21:02;98158.56;;;4.73;100.00
28181;BME280;15464;50.988;10.318;2024-03-23T09:23:28;98169.44;;;4.80;100.00
28181;BME280;15464;50.988;10.318;2024-03-23T09:25:53;98171.00;;;5.17;100.00
28181;BME280;15464;50.988;10.318;2024-03-23T09:28:19;98169.31;;;5.16;100.00
28181;BME280;15464;50.988;10.318;2024-03-23T09:30:45;98169.56;;;5.24;100.00
28181;BME280;15464;50.988;10.318;2024-03-23T09:33:14;98171.09;;;5.16;100.00
28181;BME280;15464;50.988;10.318;2024-03-23T09:35:41;98168.66;;;5.02;100.00
28181;BME280;15464;50.988;10.318;2024-03-23T09:38:07;98171.31;;;5.13;100.00
28181;BME280;15464;50.988;10.318;2024-03-23T09:40:33;98171.47;;;5.22;100.00
28181;BME280;15464;50.988;10.318;2024-03-23T09:42:59;98169.22;;;5.29;100.00
28181;BME280;15464;50.988;10.318;2024-03-23T09:45:29;98167.69;;;5.49;100.00
28181;BME280;15464;50.988;10.318;2024-03-23T09:47:55;98174.28;;;5.65;100.00
28181;BME280;15464;50.988;10.318;2024-03-23T09:50:22;98175.69;;;5.69;100.00
28181;BME280;15464;50.988;10.318;2024-03-23T09:52:48;98179.91;;;5.61;100.00
28181;BME280;15464;50.988;10.318;2024-03-23T09:55:14;98182.88;;;5.79;100.00
28181;BME280;15464;50.988;10.318;2024-03-23T09:57:41;98186.94;;;5.60;100.00
28181;BME280;15464;50.988;10.318;2024-03-23T10:00:07;98179.16;;;5.37;99.14
28181;BME280;15464;50.988;10.318;2024-03-23T10:02:34;98180.69;;;5.50;100.00
28181;BME280;15464;50.988;10.318;2024-03-23T10:05:01;98182.84;;;5.45;100.00
28181;BME280;15464;50.988;10.318;2024-03-23T10:07:26;98191.00;;;5.64;100.00
28181;BME280;15464;50.988;10.318;2024-03-23T10:09:55;98181.31;;;5.43;100.00
28181;BME280;15464;50.988;10.318;2024-03-23T10:12:22;98183.22;;;5.52;100.00
28181;BME280;15464;50.988;10.318;2024-03-23T10:14:49;98194.84;;;5.72;100.00
28181;BME280;15464;50.988;10.318;2024-03-23T10:17:22;98189.81;;;5.68;100.00
28181;BME280;15464;50.988;10.318;2024-03-23T10:19:52;98187.06;;;5.70;100.00
28181;BME280;15464;50.988;10.318;2024-03-23T10:22:24;98183.59;;;5.81;100.00
28181;BME280;15464;50.988;10.318;2024-03-23T10:24:50;98178.00;;;5.96;100.00
28181;BME280;15464;50.988;10.318;2024-03-23T10:27:17;98184.59;;;5.91;100.00
28181;BME280;15464;50.988;10.318;2024-03-23T10:29:45;98183.94;;;5.76;100.00
28181;BME280;15464;50.988;10.318;2024-03-23T10:32:11;98186.94;;;5.83;100.00
28181;BME280;15464;50.988;10.318;2024-03-23T10:34:38;98191.94;;;5.63;100.00
28181;BME280;15464;50.988;10.318;2024-03-23T10:37:04;98192.41;;;5.46;100.00
28181;BME280;15464;50.988;10.318;2024-03-23T10:39:38;98196.94;;;5.33;100.00
28181;BME280;15464;50.988;10.318;2024-03-23T10:42:09;98188.38;;;5.42;100.00
28181;BME280;15464;50.988;10.318;2024-03-23T10:44:38;98197.94;;;5.08;100.00
28181;BME280;15464;50.988;10.318;2024-03-23T10:47:04;98200.00;;;5.05;100.00
28181;BME280;15464;50.988;10.318;2024-03-23T10:49:32;98198.91;;;5.07;100.00
28181;BME280;15464;50.988;10.318;2024-03-23T10:52:00;98204.06;;;5.09;100.00
28181;BME280;15464;50.988;10.318;2024-03-23T10:54:27;98207.72;;;5.06;100.00
28181;BME280;15464;50.988;10.318;2024-03-23T10:56:57;98200.13;;;5.14;100.00
28181;BME280;15464;50.988;10.318;2024-03-23T10:59:25;98201.25;;;5.34;100.00
28181;BME280;15464;50.988;10.318;2024-03-23T11:01:59;98202.94;;;5.35;100.00
28181;BME280;15464;50.988;10.318;2024-03-23T11:04:36;98204.34;;;5.39;100.00
28181;BME280;15464;50.988;10.318;2024-03-23T11:09:59;98200.09;;;5.60;100.00
28181;BME280;15464;50.988;10.318;2024-03-23T11:12:26;98206.94;;;5.74;100.00
28181;BME280;15464;50.988;10.318;2024-03-23T11:15:04;98200.09;;;5.83;100.00
28181;BME280;15464;50.988;10.318;2024-03-23T11:17:30;98199.16;;;6.06;100.00
28181;BME280;15464;50.988;10.318;2024-03-23T11:19:58;98200.59;;;5.88;100.00
28181;BME280;15464;50.988;10.318;2024-03-23T11:22:53;98197.84;;;5.89;97.08
28181;BME280;15464;50.988;10.318;2024-03-23T11:25:23;98202.28;;;6.00;97.34
28181;BME280;15464;50.988;10.318;2024-03-23T11:27:50;98194.09;;;6.25;97.00
28181;BME280;15464;50.988;10.318;2024-03-23T11:30:26;98187.81;;;6.60;96.70
28181;BME280;15464;50.988;10.318;2024-03-23T11:32:55;98194.50;;;6.64;94.18
28181;BME280;15464;50.988;10.318;2024-03-23T11:35:31;98196.28;;;6.63;93.38
28181;BME280;15464;50.988;10.318;2024-03-23T11:38:05;98187.53;;;6.63;91.94
28181;BME280;15464;50.988;10.318;2024-03-23T11:40:32;98195.66;;;6.71;92.31
28181;BME280;15464;50.988;10.318;2024-03-23T11:43:03;98184.25;;;6.81;89.64
28181;BME280;15464;50.988;10.318;2024-03-23T11:45:34;98188.69;;;6.81;90.78
28181;BME280;15464;50.988;10.318;2024-03-23T11:50:42;98159.41;;;7.37;89.22
28181;BME280;15464;50.988;10.318;2024-03-23T11:53:18;98157.97;;;7.53;90.47
28181;BME280;15464;50.988;10.318;2024-03-23T11:55:58;98151.56;;;7.56;86.39
28181;BME280;15464;50.988;10.318;2024-03-23T11:58:26;98150.25;;;7.71;85.35
28181;BME280;15464;50.988;10.318;2024-03-23T12:01:00;98147.63;;;8.21;84.43
28181;BME280;15464;50.988;10.318;2024-03-23T12:03:28;98149.03;;;8.25;82.06
28181;BME280;15464;50.988;10.318;2024-03-23T12:05:55;98138.91;;;7.80;78.82
28181;BME280;15464;50.988;10.318;2024-03-23T12:08:22;98144.50;;;7.96;82.14
28181;BME280;15464;50.988;10.318;2024-03-23T12:10:49;98135.38;;;8.10;80.04
28181;BME280;15464;50.988;10.318;2024-03-23T12:13:17;98128.41;;;7.99;76.87
28181;BME280;15464;50.988;10.318;2024-03-23T12:15:44;98130.09;;;8.20;70.39
28181;BME280;15464;50.988;10.318;2024-03-23T12:18:10;98133.75;;;8.28;77.45
28181;BME280;15464;50.988;10.318;2024-03-23T12:20:37;98118.53;;;7.92;74.34
28181;BME280;15464;50.988;10.318;2024-03-23T12:23:12;98123.00;;;7.61;73.82
28181;BME280;15464;50.988;10.318;2024-03-23T12:25:39;98115.47;;;7.56;75.49
28181;BME280;15464;50.988;10.318;2024-03-23T12:28:06;98102.97;;;8.08;70.98
28181;BME280;15464;50.988;10.318;2024-03-23T12:30:36;98108.75;;;9.00;73.09
28181;BME280;15464;50.988;10.318;2024-03-23T12:33:04;98095.34;;;9.30;67.99
28181;BME280;15464;50.988;10.318;2024-03-23T12:35:30;98093.34;;;9.42;69.00
28181;BME280;15464;50.988;10.318;2024-03-23T12:37:55;98082.19;;;9.48;64.78
28181;BME280;15464;50.988;10.318;2024-03-23T12:40:21;98080.38;;;8.92;65.27
28181;BME280;15464;50.988;10.318;2024-03-23T12:42:47;98080.03;;;9.24;65.73
28181;BME280;15464;50.988;10.318;2024-03-23T12:45:13;98091.81;;;8.73;63.12
28181;BME280;15464;50.988;10.318;2024-03-23T12:47:39;98095.28;;;8.45;64.15
28181;BME280;15464;50.988;10.318;2024-03-23T12:50:05;98093.09;;;8.00;62.25
28181;BME280;15464;50.988;10.318;2024-03-23T12:52:32;98104.53;;;8.10;65.93
28181;BME280;15464;50.988;10.318;2024-03-23T12:54:58;98098.38;;;8.00;62.64
28181;BME280;15464;50.988;10.318;2024-03-23T12:57:24;98100.66;;;7.75;65.88
28181;BME280;15464;50.988;10.318;2024-03-23T12:59:52;98117.72;;;7.61;65.05
28181;BME280;15464;50.988;10.318;2024-03-23T13:02:21;98126.72;;;7.58;66.34
28181;BME280;15464;50.988;10.318;2024-03-23T13:04:50;98163.03;;;6.83;73.90
28181;BME280;15464;50.988;10.318;2024-03-23T13:07:17;98177.28;;;6.60;79.89
28181;BME280;15464;50.988;10.318;2024-03-23T13:09:43;98187.47;;;5.99;82.98
28181;BME280;15464;50.988;10.318;2024-03-23T13:12:09;98184.06;;;5.63;87.27
28181;BME280;15464;50.988;10.318;2024-03-23T13:14:38;98186.00;;;5.73;89.59
28181;BME280;15464;50.988;10.318;2024-03-23T13:17:04;98167.81;;;6.03;88.16
28181;BME280;15464;50.988;10.318;2024-03-23T13:19:30;98179.06;;;6.16;86.40
28181;BME280;15464;50.988;10.318;2024-03-23T13:21:58;98168.25;;;6.73;86.80
28181;BME280;15464;50.988;10.318;2024-03-23T13:24:27;98163.97;;;7.35;88.02
28181;BME280;15464;50.988;10.318;2024-03-23T13:26:54;98159.31;;;7.78;87.10
28181;BME280;15464;50.988;10.318;2024-03-23T13:29:20;98154.75;;;7.80;86.16
28181;BME280;15464;50.988;10.318;2024-03-23T13:31:48;98158.16;;;7.41;82.88
28181;BME280;15464;50.988;10.318;2024-03-23T13:34:14;98171.88;;;6.61;82.54
28181;BME280;15464;50.988;10.318;2024-03-23T13:36:41;98157.72;;;6.94;85.62
28181;BME280;15464;50.988;10.318;2024-03-23T13:39:07;98153.72;;;7.41;84.22
28181;BME280;15464;50.988;10.318;2024-03-23T13:41:41;98149.91;;;7.85;81.97
28181;BME280;15464;50.988;10.318;2024-03-23T13:44:07;98155.94;;;8.06;81.63
28181;BME280;15464;50.988;10.318;2024-03-23T13:46:33;98152.75;;;8.43;82.03
28181;BME280;15464;50.988;10.318;2024-03-23T13:49:00;98148.16;;;8.64;79.12
28181;BME280;15464;50.988;10.318;2024-03-23T13:51:27;98151.78;;;8.82;77.96